createdAt,value
2022-12-12T00:01:59.328Z,9.93
2022-12-12T00:04:26.956Z,10.32
2022-12-12T00:06:54.562Z,9.48
2022-12-12T00:09:22.256Z,8.88
2022-12-12T00:11:51.248Z,8.82
2022-12-12T00:14:18.868Z,9.48
2022-12-12T00:16:46.507Z,9.80
2022-12-12T00:19:14.217Z,10.35
2022-12-12T00:21:41.885Z,10.00
2022-12-12T00:24:09.729Z,9.45
2022-12-12T00:26:37.578Z,9.02
2022-12-12T00:29:07.186Z,8.27
2022-12-12T00:31:34.926Z,9.25
2022-12-12T00:34:02.704Z,8.95
2022-12-12T00:36:31.262Z,9.75
2022-12-12T00:38:59.585Z,9.02
2022-12-12T00:41:27.396Z,8.98
2022-12-12T00:43:55.211Z,8.65
2022-12-12T00:46:25.605Z,7.97
2022-12-12T00:48:55.311Z,8.35
2022-12-12T00:51:23.706Z,8.05
2022-12-12T00:53:51.815Z,8.93
2022-12-12T00:56:20.175Z,7.93
2022-12-12T00:58:47.855Z,7.90
2022-12-12T01:01:16.728Z,8.40
2022-12-12T01:03:45.772Z,7.90
2022-12-12T01:06:13.597Z,8.48
2022-12-12T01:08:41.657Z,8.75
2022-12-12T01:11:09.787Z,9.35
2022-12-12T01:13:38.109Z,8.73
2022-12-12T01:16:06.281Z,6.65
2022-12-12T01:18:34.052Z,10.48
2022-12-12T01:21:03.174Z,8.32
2022-12-12T01:23:30.776Z,8.35
2022-12-12T01:26:01.978Z,9.05
2022-12-12T01:28:29.714Z,9.32
2022-12-12T01:30:57.389Z,7.60
2022-12-12T01:33:25.066Z,8.18
2022-12-12T01:35:52.732Z,8.88
2022-12-12T01:38:22.010Z,7.90
2022-12-12T01:40:49.613Z,7.20
2022-12-12T01:43:18.615Z,9.85
2022-12-12T01:46:10.413Z,7.93
2022-12-12T01:48:39.845Z,8.10
2022-12-12T01:51:08.898Z,8.43
2022-12-12T01:53:38.521Z,6.53
2022-12-12T01:56:09.517Z,7.53
2022-12-12T01:58:37.202Z,6.85
2022-12-12T02:01:05.000Z,7.35
2022-12-12T02:03:32.956Z,8.23
2022-12-12T02:06:03.509Z,7.75
2022-12-12T02:08:31.485Z,7.78
2022-12-12T02:11:00.486Z,7.95
2022-12-12T02:13:30.655Z,7.80
2022-12-12T02:16:04.361Z,6.70
2022-12-12T02:18:36.572Z,6.22
2022-12-12T02:21:09.478Z,7.90
2022-12-12T02:23:55.285Z,9.77
2022-12-12T02:26:40.130Z,7.82
2022-12-12T02:29:19.318Z,9.32
2022-12-12T02:31:52.982Z,7.72
2022-12-12T02:34:23.552Z,6.85
2022-12-12T02:36:53.554Z,8.52
2022-12-12T02:39:24.224Z,7.65
2022-12-12T02:41:53.410Z,8.00
2022-12-12T02:44:24.739Z,7.88
2022-12-12T02:46:57.246Z,8.57
2022-12-12T02:49:30.348Z,8.13
2022-12-12T02:51:58.839Z,8.10
2022-12-12T02:54:26.590Z,6.82
2022-12-12T02:56:55.724Z,8.57
2022-12-12T02:59:25.453Z,8.13
2022-12-12T03:02:12.468Z,9.82
2022-12-12T03:05:03.443Z,9.15
2022-12-12T03:07:48.428Z,7.60
2022-12-12T03:10:20.788Z,7.40
2022-12-12T03:12:54.376Z,7.32
2022-12-12T03:15:24.004Z,8.27
2022-12-12T03:17:57.710Z,7.38
2022-12-12T03:20:27.575Z,7.97
2022-12-12T03:22:56.487Z,6.95
2022-12-12T03:25:27.650Z,8.02
2022-12-12T03:27:59.701Z,7.25
2022-12-12T03:30:30.024Z,8.15
2022-12-12T03:33:00.696Z,7.63
2022-12-12T03:35:29.988Z,7.18
2022-12-12T03:37:59.674Z,8.13
2022-12-12T03:40:30.986Z,8.73
2022-12-12T03:43:00.786Z,7.72
2022-12-12T03:45:30.630Z,7.28
2022-12-12T03:48:01.882Z,8.25
2022-12-12T03:50:31.627Z,8.70
2022-12-12T03:53:01.559Z,8.07
2022-12-12T03:55:32.221Z,9.70
2022-12-12T03:58:01.693Z,7.30
2022-12-12T04:00:30.479Z,8.02
2022-12-12T04:03:02.639Z,7.65
2022-12-12T04:05:36.864Z,8.07
2022-12-12T04:08:08.687Z,7.10
2022-12-12T04:10:56.489Z,9.05
2022-12-12T04:13:32.271Z,8.73
2022-12-12T04:16:02.308Z,8.27
2022-12-12T04:21:26.842Z,7.53
2022-12-12T04:24:00.988Z,8.63
2022-12-12T04:26:42.026Z,7.18
2022-12-12T04:29:26.932Z,7.93
2022-12-12T04:31:58.209Z,7.95
2022-12-12T04:34:28.688Z,7.43
2022-12-12T04:36:57.781Z,8.32
2022-12-12T04:39:25.972Z,7.60
2022-12-12T04:41:55.005Z,7.15
2022-12-12T04:44:24.291Z,9.00
2022-12-12T04:46:52.825Z,7.90
2022-12-12T04:49:21.553Z,8.50
2022-12-12T04:51:50.738Z,9.05
2022-12-12T04:54:23.480Z,8.15
2022-12-12T04:56:52.823Z,8.63
2022-12-12T04:59:20.831Z,8.35
2022-12-12T05:01:53.670Z,9.27
2022-12-12T05:04:24.596Z,8.38
2022-12-12T05:06:54.647Z,6.32
2022-12-12T05:09:23.830Z,7.53
2022-12-12T05:11:51.439Z,8.35
2022-12-12T05:14:19.343Z,7.45
2022-12-12T05:16:48.500Z,6.65
2022-12-12T05:19:16.192Z,6.57
2022-12-12T05:21:43.870Z,7.57
2022-12-12T05:24:11.556Z,7.57
2022-12-12T05:26:41.043Z,6.80
2022-12-12T05:29:08.838Z,7.13
2022-12-12T05:31:36.821Z,7.97
2022-12-12T05:34:04.901Z,7.10
2022-12-12T05:36:32.747Z,7.57
2022-12-12T05:39:00.419Z,7.82
2022-12-12T05:41:28.052Z,9.05
2022-12-12T05:43:57.223Z,9.07
2022-12-12T05:46:25.025Z,6.75
2022-12-12T05:48:52.786Z,7.40
2022-12-12T05:51:21.098Z,6.57
2022-12-12T05:53:48.742Z,6.97
2022-12-12T05:56:16.469Z,7.05
2022-12-12T05:58:44.225Z,8.40
2022-12-12T06:01:13.222Z,6.60
2022-12-12T06:03:40.885Z,8.20
2022-12-12T06:06:08.920Z,7.15
2022-12-12T06:08:36.599Z,7.70
2022-12-12T06:11:06.623Z,8.20
2022-12-12T06:13:34.327Z,7.75
2022-12-12T06:16:06.623Z,8.65
2022-12-12T06:18:35.856Z,7.22
2022-12-12T06:21:04.474Z,7.05
2022-12-12T06:23:32.215Z,6.75
2022-12-12T06:25:59.898Z,8.55
2022-12-12T06:28:27.921Z,7.57
2022-12-12T06:30:55.824Z,6.57
2022-12-12T06:33:23.530Z,6.47
2022-12-12T06:35:59.832Z,7.03
2022-12-12T06:38:27.771Z,8.23
2022-12-12T06:40:55.515Z,8.18
2022-12-12T06:43:23.271Z,7.05
2022-12-12T06:45:51.118Z,6.60
2022-12-12T06:48:18.837Z,8.32
2022-12-12T06:50:46.993Z,6.50
2022-12-12T06:53:16.735Z,8.70
2022-12-12T06:55:44.703Z,7.32
2022-12-12T06:58:12.390Z,8.30
2022-12-12T07:00:40.022Z,8.70
2022-12-12T07:03:07.734Z,8.85
2022-12-12T07:05:35.636Z,6.90
2022-12-12T07:08:03.403Z,8.52
2022-12-12T07:10:32.589Z,6.45
2022-12-12T07:13:00.349Z,9.05
2022-12-12T07:15:28.002Z,8.40
2022-12-12T07:17:55.672Z,9.30
2022-12-12T07:20:23.321Z,9.23
2022-12-12T07:22:51.071Z,6.40
2022-12-12T07:25:18.768Z,9.57
2022-12-12T07:27:47.750Z,7.63
2022-12-12T07:30:15.493Z,6.50
2022-12-12T07:32:43.279Z,6.78
2022-12-12T07:35:11.153Z,8.82
2022-12-12T07:37:38.874Z,7.07
2022-12-12T07:40:07.022Z,5.95
2022-12-12T07:42:34.650Z,5.63
2022-12-12T07:45:03.650Z,6.75
2022-12-12T07:47:31.477Z,6.75
2022-12-12T07:49:59.097Z,8.32
2022-12-12T07:52:26.731Z,6.85
2022-12-12T07:54:54.363Z,6.80
2022-12-12T07:57:22.087Z,7.03
2022-12-12T07:59:49.814Z,7.15
2022-12-12T08:02:18.853Z,6.45
2022-12-12T08:04:46.581Z,5.88
2022-12-12T08:07:14.235Z,5.25
2022-12-12T08:09:42.055Z,5.70
2022-12-12T08:12:09.827Z,7.07
2022-12-12T08:14:37.946Z,6.90
2022-12-12T08:17:05.541Z,6.38
2022-12-12T08:19:34.766Z,6.53
2022-12-12T08:22:02.401Z,6.88
2022-12-12T08:24:30.104Z,7.22
2022-12-12T08:26:57.893Z,8.32
2022-12-12T08:29:25.737Z,8.65
2022-12-12T08:31:53.433Z,6.00
2022-12-12T08:34:21.032Z,6.25
2022-12-12T08:36:50.812Z,7.43
2022-12-12T08:39:18.923Z,6.63
2022-12-12T08:41:48.009Z,7.40
2022-12-12T08:44:16.201Z,6.53
2022-12-12T08:46:43.925Z,7.47
2022-12-12T08:49:11.666Z,7.72
2022-12-12T08:51:39.737Z,8.05
2022-12-12T08:54:09.237Z,5.63
2022-12-12T08:56:36.960Z,6.82
2022-12-12T08:59:05.897Z,8.02
2022-12-12T09:01:33.870Z,7.18
2022-12-12T09:04:01.653Z,7.78
2022-12-12T09:06:29.414Z,7.32
2022-12-12T09:08:57.957Z,6.47
2022-12-12T09:11:27.724Z,7.05
2022-12-12T09:13:55.393Z,9.07
2022-12-12T09:16:26.284Z,6.03
2022-12-12T09:18:53.989Z,8.27
2022-12-12T09:21:21.667Z,7.75
2022-12-12T09:23:49.516Z,8.95
2022-12-12T09:26:18.758Z,7.20
2022-12-12T09:28:47.771Z,7.40
2022-12-12T09:31:15.676Z,8.02
2022-12-12T09:33:43.567Z,7.82
2022-12-12T09:36:13.801Z,6.30
2022-12-12T09:38:42.502Z,6.43
2022-12-12T09:41:17.018Z,7.60
2022-12-12T09:43:49.115Z,7.85
2022-12-12T09:46:26.011Z,7.45
2022-12-12T09:48:54.716Z,7.25
2022-12-12T09:51:22.393Z,7.15
2022-12-12T09:53:51.536Z,6.57
2022-12-12T09:56:21.646Z,7.65
2022-12-12T09:58:56.990Z,6.75
2022-12-12T10:01:27.614Z,6.18
2022-12-12T10:04:01.639Z,6.22
2022-12-12T10:06:38.553Z,8.65
2022-12-12T10:09:10.431Z,6.70
2022-12-12T10:11:54.393Z,7.68
2022-12-12T10:14:26.190Z,7.10
2022-12-12T10:16:57.762Z,8.05
2022-12-12T10:19:28.705Z,7.13
2022-12-12T10:21:58.919Z,8.68
2022-12-12T10:24:31.128Z,7.07
2022-12-12T10:26:59.205Z,7.10
2022-12-12T10:29:28.702Z,7.35
2022-12-12T10:31:59.924Z,6.03
2022-12-12T10:34:33.369Z,6.78
2022-12-12T10:37:09.794Z,6.80
2022-12-12T10:39:44.358Z,7.38
2022-12-12T10:42:15.585Z,6.25
2022-12-12T10:45:03.939Z,7.25
2022-12-12T10:47:31.768Z,6.35
2022-12-12T10:50:02.958Z,6.00
2022-12-12T10:52:30.620Z,5.72
2022-12-12T10:54:59.770Z,6.13
2022-12-12T10:57:28.074Z,5.88
2022-12-12T10:59:56.555Z,5.60
2022-12-12T11:02:37.027Z,7.82
2022-12-12T11:05:09.444Z,7.60
2022-12-12T11:07:40.620Z,6.80
2022-12-12T11:10:29.117Z,7.57
2022-12-12T11:13:00.782Z,6.72
2022-12-12T11:15:40.544Z,5.90
2022-12-12T11:18:14.717Z,6.18
2022-12-12T11:20:45.195Z,7.47
2022-12-12T11:23:18.479Z,7.32
2022-12-12T11:25:46.625Z,5.90
2022-12-12T11:28:18.363Z,5.28
2022-12-12T11:30:46.016Z,7.95
2022-12-12T11:33:20.237Z,7.90
2022-12-12T11:35:53.382Z,6.90
2022-12-12T11:38:22.264Z,6.15
2022-12-12T11:40:57.627Z,6.15
2022-12-12T11:43:26.177Z,7.03
2022-12-12T11:46:01.183Z,5.60
2022-12-12T11:48:41.625Z,5.25
2022-12-12T11:51:09.280Z,7.07
2022-12-12T11:53:38.713Z,6.63
2022-12-12T11:56:14.587Z,8.65
2022-12-12T11:58:46.908Z,6.38
2022-12-12T12:01:19.635Z,8.35
2022-12-12T12:03:59.382Z,6.15
2022-12-12T12:06:33.451Z,6.70
2022-12-12T12:09:10.956Z,6.65
2022-12-12T12:11:42.475Z,7.40
2022-12-12T12:14:23.295Z,7.30
2022-12-12T12:16:53.956Z,7.68
2022-12-12T12:19:24.867Z,6.82
2022-12-12T12:21:56.742Z,6.00
2022-12-12T12:24:43.033Z,6.40
2022-12-12T12:27:16.267Z,6.72
2022-12-12T12:29:56.979Z,7.20
2022-12-12T12:32:29.600Z,7.85
2022-12-12T12:35:05.782Z,7.93
2022-12-12T12:37:38.361Z,6.82
2022-12-12T12:40:15.485Z,6.68
2022-12-12T12:42:59.774Z,7.00
2022-12-12T12:45:32.338Z,5.47
2022-12-12T12:48:05.813Z,6.90
2022-12-12T12:50:41.528Z,6.55
2022-12-12T12:53:16.921Z,7.28
2022-12-12T12:55:46.910Z,7.40
2022-12-12T12:58:18.696Z,6.50
2022-12-12T13:00:48.189Z,7.43
2022-12-12T13:03:19.750Z,5.97
2022-12-12T13:05:51.686Z,6.47
2022-12-12T13:08:22.164Z,7.20
2022-12-12T13:10:52.345Z,9.35
2022-12-12T13:13:22.768Z,6.38
2022-12-12T13:15:52.538Z,6.40
2022-12-12T13:18:20.196Z,6.70
2022-12-12T13:20:53.128Z,8.10
2022-12-12T13:23:30.866Z,6.45
2022-12-12T13:26:02.635Z,6.60
2022-12-12T13:28:33.403Z,6.35
2022-12-12T13:31:12.719Z,6.32
2022-12-12T13:33:42.783Z,8.07
2022-12-12T13:36:13.972Z,6.28
2022-12-12T13:38:42.047Z,7.93
2022-12-12T13:41:10.801Z,8.52
2022-12-12T13:43:43.942Z,7.82
2022-12-12T13:46:30.747Z,8.13
2022-12-12T13:49:00.094Z,5.65
2022-12-12T13:51:36.537Z,8.60
2022-12-12T13:54:22.924Z,8.55
2022-12-12T13:57:06.805Z,6.78
2022-12-12T13:59:57.487Z,6.47
2022-12-12T14:02:29.686Z,6.70
2022-12-12T14:05:09.804Z,6.40
2022-12-12T14:07:39.688Z,6.60
2022-12-12T14:10:20.133Z,6.65
2022-12-12T14:12:48.359Z,8.48
2022-12-12T14:15:20.758Z,9.18
2022-12-12T14:17:53.729Z,7.60
2022-12-12T14:20:29.906Z,7.05
2022-12-12T14:23:15.419Z,6.82
2022-12-12T14:25:44.498Z,6.38
2022-12-12T14:28:17.039Z,7.20
2022-12-12T14:30:46.374Z,8.73
2022-12-12T14:33:47.463Z,7.28
2022-12-12T14:36:26.651Z,6.90
2022-12-12T14:38:59.595Z,7.07
2022-12-12T14:41:32.053Z,8.63
2022-12-12T14:44:35.349Z,6.72
2022-12-12T14:46:49.578Z,8.05
2022-12-12T14:49:18.127Z,7.18
2022-12-12T14:51:48.047Z,6.80
2022-12-12T14:54:16.511Z,6.82
2022-12-12T14:56:52.253Z,7.88
2022-12-12T14:59:21.852Z,7.68
2022-12-12T15:01:50.956Z,6.30
2022-12-12T15:04:20.852Z,6.72
2022-12-12T15:06:51.308Z,7.40
2022-12-12T15:09:25.822Z,7.43
2022-12-12T15:11:56.204Z,6.93
2022-12-12T15:14:26.038Z,7.03
2022-12-12T15:16:56.387Z,10.50
2022-12-12T15:19:27.356Z,10.48
2022-12-12T15:21:55.299Z,11.88
2022-12-12T15:24:24.490Z,11.20
2022-12-12T15:26:53.942Z,9.13
2022-12-12T15:29:24.678Z,8.50
2022-12-12T15:31:56.125Z,8.02
2022-12-12T15:34:35.670Z,7.65
2022-12-12T15:37:23.614Z,8.50
2022-12-12T15:39:58.492Z,21.27
2022-12-12T15:42:26.342Z,13.73
2022-12-12T15:44:55.570Z,8.00
2022-12-12T15:47:23.499Z,9.30
2022-12-12T15:49:53.008Z,8.55
2022-12-12T15:52:22.547Z,12.27
2022-12-12T15:54:51.693Z,11.63
2022-12-12T15:57:21.160Z,12.45
2022-12-12T15:59:54.455Z,15.52
2022-12-12T16:02:30.525Z,12.10
2022-12-12T16:05:01.050Z,13.80
2022-12-12T16:07:28.763Z,9.20
2022-12-12T16:10:00.673Z,7.28
2022-12-12T16:12:46.834Z,8.60
2022-12-12T16:15:21.113Z,8.95
2022-12-12T16:17:59.959Z,8.02
2022-12-12T16:20:30.553Z,8.60
2022-12-12T16:23:09.252Z,7.60
2022-12-12T16:25:37.108Z,10.70
2022-12-12T16:28:15.796Z,10.02
2022-12-12T16:30:46.636Z,10.68
2022-12-12T16:33:21.494Z,8.93
2022-12-12T16:35:49.120Z,9.90
2022-12-12T16:38:17.477Z,20.58
2022-12-12T16:40:45.911Z,31.67
2022-12-12T16:43:15.765Z,22.25
2022-12-12T16:45:43.786Z,30.75
2022-12-12T16:48:17.903Z,13.82
2022-12-12T16:50:45.896Z,10.95
2022-12-12T16:53:13.545Z,10.13
2022-12-12T16:55:42.854Z,10.43
2022-12-12T16:58:10.925Z,10.45
2022-12-12T17:00:40.005Z,9.70
2022-12-12T17:03:07.950Z,8.75
2022-12-12T17:05:43.887Z,10.48
2022-12-12T17:08:12.104Z,11.35
2022-12-12T17:10:39.930Z,8.90
2022-12-12T17:13:08.473Z,10.07
2022-12-12T17:15:36.160Z,11.60
2022-12-12T17:18:04.304Z,11.18
2022-12-12T17:20:37.895Z,12.88
2022-12-12T17:25:57.249Z,15.85
2022-12-12T17:28:28.784Z,20.42
2022-12-12T17:30:56.418Z,17.10
2022-12-12T17:33:24.082Z,15.73
2022-12-12T17:35:58.401Z,14.35
2022-12-12T17:38:27.706Z,13.63
2022-12-12T17:40:56.797Z,11.55
2022-12-12T17:43:25.053Z,14.40
2022-12-12T17:46:02.485Z,14.82
2022-12-12T17:48:31.226Z,14.50
2022-12-12T17:50:59.858Z,14.15
2022-12-12T17:53:32.220Z,17.23
2022-12-12T17:56:01.124Z,12.23
2022-12-12T17:58:34.988Z,12.20
2022-12-12T18:01:09.537Z,11.45
2022-12-12T18:03:37.341Z,13.53
2022-12-12T18:06:05.283Z,13.55
2022-12-12T18:08:34.450Z,12.85
2022-12-12T18:11:02.307Z,11.70
2022-12-12T18:13:29.948Z,11.43
2022-12-12T18:15:57.917Z,11.45
2022-12-12T18:18:26.221Z,11.38
2022-12-12T18:20:53.950Z,10.93
2022-12-12T18:23:21.701Z,12.95
2022-12-12T18:25:50.680Z,13.32
2022-12-12T18:28:18.534Z,11.45
2022-12-12T18:30:49.104Z,11.93
2022-12-12T18:33:16.947Z,11.48
2022-12-12T18:35:44.700Z,10.88
2022-12-12T18:38:12.325Z,12.77
2022-12-12T18:40:40.580Z,12.95
2022-12-12T18:43:09.580Z,11.90
2022-12-12T18:45:37.605Z,9.95
2022-12-12T18:48:05.718Z,10.23
2022-12-12T18:50:33.889Z,10.25
2022-12-12T18:53:01.568Z,10.95
2022-12-12T18:55:30.565Z,10.85
2022-12-12T18:57:58.336Z,11.18
2022-12-12T19:00:27.768Z,11.05
2022-12-12T19:02:55.426Z,12.82
2022-12-12T19:05:23.160Z,13.57
2022-12-12T19:07:52.393Z,14.73
2022-12-12T19:10:20.391Z,18.38
2022-12-12T19:12:48.043Z,22.73
2022-12-12T19:15:17.147Z,18.23
2022-12-12T19:17:46.852Z,19.20
2022-12-12T19:20:14.813Z,15.20
2022-12-12T19:22:46.914Z,15.50
2022-12-12T19:25:15.230Z,13.95
2022-12-12T19:27:42.901Z,14.05
2022-12-12T19:30:11.936Z,15.65
2022-12-12T19:32:39.855Z,14.77
2022-12-12T19:35:09.928Z,12.32
2022-12-12T19:37:38.448Z,14.27
2022-12-12T19:40:06.714Z,15.68
2022-12-12T19:42:34.380Z,11.75
2022-12-12T19:45:02.021Z,12.30
2022-12-12T19:47:29.873Z,11.43
2022-12-12T19:49:57.630Z,11.93
2022-12-12T19:52:26.733Z,12.55
2022-12-12T19:54:54.425Z,16.38
2022-12-12T19:57:26.238Z,18.25
2022-12-12T19:59:54.538Z,18.98
2022-12-12T20:02:22.300Z,15.68
2022-12-12T20:04:50.137Z,12.73
2022-12-12T20:07:17.832Z,13.73
2022-12-12T20:09:46.887Z,13.30
2022-12-12T20:12:14.622Z,15.77
2022-12-12T20:14:42.258Z,14.80
2022-12-12T20:17:10.880Z,13.77
2022-12-12T20:19:38.769Z,13.27
2022-12-12T20:22:06.450Z,14.38
2022-12-12T20:24:34.369Z,15.05
2022-12-12T20:27:04.457Z,14.10
2022-12-12T20:29:32.272Z,14.40
2022-12-12T20:32:01.709Z,14.07
2022-12-12T20:34:29.879Z,12.85
2022-12-12T20:36:58.808Z,13.35
2022-12-12T20:39:26.635Z,14.38
2022-12-12T20:41:54.719Z,14.68
2022-12-12T20:44:25.371Z,12.85
2022-12-12T20:46:53.124Z,14.10
2022-12-12T20:49:22.273Z,15.38
2022-12-12T20:51:58.304Z,16.80
2022-12-12T20:54:27.456Z,15.80
2022-12-12T20:56:55.799Z,14.38
2022-12-12T20:59:25.037Z,17.13
2022-12-12T21:01:52.879Z,14.88
2022-12-12T21:04:21.080Z,16.83
2022-12-12T21:06:49.772Z,16.02
2022-12-12T21:09:23.684Z,14.63
2022-12-12T21:11:52.119Z,15.50
2022-12-12T21:14:19.826Z,13.63
2022-12-12T21:16:48.855Z,13.75
2022-12-12T21:19:18.824Z,14.32
2022-12-12T21:21:46.926Z,13.85
2022-12-12T21:24:15.332Z,14.18
2022-12-12T21:26:42.984Z,13.35
2022-12-12T21:29:10.917Z,16.88
2022-12-12T21:31:43.418Z,24.27
2022-12-12T21:34:16.507Z,17.40
2022-12-12T21:36:44.560Z,19.77
2022-12-12T21:39:13.368Z,19.23
2022-12-12T21:41:43.815Z,20.92
2022-12-12T21:44:11.619Z,24.88
2022-12-12T21:46:41.919Z,17.48
2022-12-12T21:49:27.660Z,14.52
2022-12-12T21:51:58.438Z,15.85
2022-12-12T21:54:26.500Z,14.63
2022-12-12T21:56:54.146Z,18.75
2022-12-12T21:59:21.848Z,18.33
2022-12-12T22:01:49.663Z,18.05
2022-12-12T22:04:17.451Z,16.77
2022-12-12T22:06:46.033Z,17.58
2022-12-12T22:09:15.076Z,21.13
2022-12-12T22:11:49.685Z,24.63
2022-12-12T22:14:19.233Z,21.60
2022-12-12T22:16:47.066Z,20.85
2022-12-12T22:19:15.509Z,19.95
2022-12-12T22:21:45.055Z,21.50
2022-12-12T22:24:12.709Z,18.55
2022-12-12T22:26:42.254Z,14.75
2022-12-12T22:29:11.869Z,17.35
2022-12-12T22:31:40.287Z,16.23
2022-12-12T22:34:09.337Z,21.83
2022-12-12T22:36:37.906Z,22.88
2022-12-12T22:39:06.258Z,22.17
2022-12-12T22:41:34.179Z,21.35
2022-12-12T22:44:04.157Z,15.50
2022-12-12T22:46:31.878Z,12.60
2022-12-12T22:49:00.703Z,12.68
2022-12-12T22:51:29.291Z,14.65
2022-12-12T22:53:56.958Z,13.73
2022-12-12T22:56:24.713Z,11.90
2022-12-12T22:58:52.556Z,14.07
2022-12-12T23:01:22.550Z,12.88
2022-12-12T23:03:50.362Z,13.00
2022-12-12T23:06:18.809Z,11.20
2022-12-12T23:08:50.460Z,14.93
2022-12-12T23:11:18.197Z,12.18
2022-12-12T23:13:46.143Z,14.93
2022-12-12T23:16:14.636Z,13.88
2022-12-12T23:18:44.142Z,12.32
2022-12-12T23:21:16.768Z,11.50
2022-12-12T23:23:45.147Z,13.02
2022-12-12T23:26:13.864Z,12.07
2022-12-12T23:28:42.063Z,14.55
2022-12-12T23:31:10.315Z,15.20
2022-12-12T23:33:38.203Z,14.18
2022-12-12T23:36:08.466Z,15.27
2022-12-12T23:38:36.122Z,13.75
2022-12-12T23:41:04.496Z,14.07
2022-12-12T23:43:32.171Z,13.13
2022-12-12T23:46:02.039Z,10.98
2022-12-12T23:48:30.194Z,12.38
2022-12-12T23:50:57.895Z,10.50
2022-12-12T23:53:27.297Z,12.93
2022-12-12T23:55:54.952Z,11.50
2022-12-12T23:58:22.641Z,10.85
